Time;durP1;ratioP1;P1;durP2;ratioP2;P2;SDS_P1;SDS_P2;PMS_P1;PMS_P2;Temp;Humidity;BMP_temperature;BMP_pressure;BME280_temperature;BME280_humidity;BME280_pressure;Samples;Min_cycle;Max_cycle;Signal;HPM_P1;HPM_P2
2022/06/02 00:02:09;;;;;;;0.00;0.00;;;11.80;66.70;;;;;;5092981;28;20024;-72
2022/06/02 00:04:43;;;;;;;0.00;0.00;;;11.80;66.80;;;;;;5087556;28;20055;-73
2022/06/02 00:07:17;;;;;;;0.00;0.00;;;11.80;66.80;;;;;;5090760;28;20032;-72
2022/06/02 00:10:41;;;;;;;0.00;0.00;;;11.80;66.70;;;;;;5090659;28;20058;-73
2022/06/02 00:13:13;;;;;;;0.00;0.00;;;11.80;66.60;;;;;;4991469;28;20059;-73
2022/06/02 00:15:45;;;;;;;0.00;0.00;;;11.80;66.60;;;;;;5076622;28;20127;-73
2022/06/02 00:18:34;;;;;;;0.00;0.00;;;11.70;66.60;;;;;;5089874;28;20020;-73
2022/06/02 00:21:15;;;;;;;0.00;0.00;;;11.70;66.60;;;;;;5089792;28;20035;-74
2022/06/02 00:24:06;;;;;;;0.00;0.00;;;11.70;66.60;;;;;;5089681;28;20158;-73
2022/06/02 00:26:43;;;;;;;0.00;0.00;;;11.70;66.60;;;;;;5089735;28;20078;-74
2022/06/02 00:29:17;;;;;;;0.00;0.00;;;11.70;66.60;;;;;;5090284;28;20078;-72
2022/06/02 00:32:03;;;;;;;0.00;0.00;;;11.60;66.60;;;;;;5090247;28;20035;-72
2022/06/02 00:34:42;;;;;;;0.00;0.00;;;11.60;66.60;;;;;;5090093;28;20051;-72
2022/06/02 00:37:29;;;;;;;0.00;0.00;;;11.60;66.60;;;;;;5090087;28;20032;-73
2022/06/02 00:39:56;;;;;;;0.00;0.00;;;11.50;66.50;;;;;;5090163;28;20062;-73
2022/06/02 00:42:34;;;;;;;0.00;0.00;;;11.50;66.60;;;;;;5090095;28;20367;-72
2022/06/02 00:45:12;;;;;;;0.00;0.00;;;11.40;66.60;;;;;;5088500;28;20048;-72
2022/06/02 00:47:43;;;;;;;0.00;0.00;;;11.30;66.60;;;;;;5088764;28;20054;-73
2022/06/02 00:50:29;;;;;;;0.00;0.00;;;11.30;66.70;;;;;;5089685;28;20501;-72
2022/06/02 00:53:17;;;;;;;0.00;0.00;;;11.30;66.70;;;;;;5089819;28;20489;-73
2022/06/02 00:59:23;;;;;;;0.00;0.00;;;11.20;66.70;;;;;;5089976;28;20080;-73
2022/06/02 01:01:49;;;;;;;0.00;0.00;;;11.20;66.70;;;;;;5089427;28;20016;-73
2022/06/02 01:04:16;;;;;;;;;;;11.20;66.70;;;;;;5088398;28;20068;-72
2022/06/02 01:07:03;;;;;;;0.00;0.00;;;11.20;66.70;;;;;;5089481;28;20259;-72
2022/06/02 01:09:57;;;;;;;0.00;0.00;;;11.10;66.50;;;;;;5089492;28;20062;-72
2022/06/02 01:12:56;;;;;;;0.00;0.00;;;11.10;66.70;;;;;;5086452;28;20105;-72
2022/06/02 01:15:46;;;;;;;0.00;0.00;;;11.10;66.70;;;;;;5089444;28;20442;-72
2022/06/02 01:18:37;;;;;;;0.00;0.00;;;11.00;66.60;;;;;;5089184;28;20436;-72
2022/06/02 01:21:26;;;;;;;0.00;0.00;;;10.90;66.70;;;;;;5088010;28;20016;-72
2022/06/02 01:24:08;;;;;;;0.00;0.00;;;10.90;66.90;;;;;;5089287;28;20093;-73
2022/06/02 01:26:55;;;;;;;0.00;0.00;;;10.90;66.80;;;;;;5089247;28;20032;-72
2022/06/02 01:29:21;;;;;;;;;;;10.80;66.70;;;;;;5089640;28;20020;-72
2022/06/02 01:32:08;;;;;;;0.00;0.00;;;10.80;66.80;;;;;;5089144;28;19904;-73
2022/06/02 01:34:47;;;;;;;;;;;10.80;66.80;;;;;;5088139;28;20402;-73
2022/06/02 01:37:32;;;;;;;0.00;0.00;;;10.80;66.80;;;;;;5089030;28;20270;-73
2022/06/02 01:40:34;;;;;;;0.00;0.00;;;10.80;66.60;;;;;;5089006;28;20020;-73
2022/06/02 01:43:13;;;;;;;0.00;0.00;;;10.80;66.60;;;;;;5088980;28;20103;-73
2022/06/02 01:45:46;;;;;;;0.00;0.00;;;10.70;66.50;;;;;;5088910;28;20382;-73
2022/06/02 01:48:39;;;;;;;0.00;0.00;;;10.50;66.50;;;;;;5088746;28;20489;-72
2022/06/02 01:51:07;;;;;;;0.00;0.00;;;10.40;66.70;;;;;;5087611;28;20024;-73
2022/06/02 01:54:11;;;;;;;0.00;0.00;;;10.20;66.80;;;;;;5087275;28;20038;-73
2022/06/02 01:56:55;;;;;;;0.00;0.00;;;10.20;67.00;;;;;;5015777;28;20048;-72
2022/06/02 01:59:45;;;;;;;0.00;0.00;;;10.20;67.00;;;;;;5088973;28;20046;-73
2022/06/02 02:02:14;;;;;;;0.00;0.00;;;10.20;67.00;;;;;;5087932;28;20095;-72
2022/06/02 02:05:16;;;;;;;0.00;0.00;;;10.20;66.90;;;;;;5107523;28;20050;-72
2022/06/02 02:07:58;;;;;;;0.00;0.00;;;10.20;66.80;;;;;;5086004;28;20063;-73
2022/06/02 02:10:49;;;;;;;0.00;0.00;;;10.20;66.80;;;;;;5090344;28;20066;-72
2022/06/02 02:13:49;;;;;;;0.00;0.00;;;10.10;66.80;;;;;;5108641;28;20043;-72
2022/06/02 02:16:27;;;;;;;0.00;0.00;;;10.10;67.00;;;;;;5090317;28;20058;-72
2022/06/02 02:19:16;;;;;;;0.00;0.00;;;10.10;66.90;;;;;;5108512;28;20016;-72
2022/06/02 02:22:11;;;;;;;0.00;0.00;;;10.10;67.30;;;;;;5090252;28;20033;-73
2022/06/02 02:24:54;;;;;;;0.00;0.00;;;10.10;66.70;;;;;;5090164;28;20019;-73
2022/06/02 02:27:22;;;;;;;0.00;0.00;;;10.00;66.90;;;;;;5108643;28;20470;-73
2022/06/02 02:29:57;;;;;;;0.00;0.00;;;10.00;66.90;;;;;;5108408;28;20036;-72
2022/06/02 02:32:34;;;;;;;0.00;0.00;;;10.00;66.90;;;;;;5108331;28;20028;-71
2022/06/02 02:35:24;;;;;;;0.00;0.00;;;10.00;66.80;;;;;;5108359;28;20058;-72
2022/06/02 02:37:57;;;;;;;0.00;0.00;;;10.10;66.90;;;;;;5108259;28;20055;-73
2022/06/02 02:40:46;;;;;;;0.00;0.00;;;10.10;66.80;;;;;;5108391;28;20191;-72
2022/06/02 02:43:31;;;;;;;0.00;0.00;;;10.10;66.60;;;;;;5107408;28;20039;-72
2022/06/02 02:46:22;;;;;;;0.00;0.00;;;10.00;66.60;;;;;;5089946;28;20020;-72
2022/06/02 02:49:04;;;;;;;0.00;0.00;;;10.00;66.60;;;;;;5108289;28;20101;-73
2022/06/02 02:52:05;;;;;;;0.00;0.00;;;10.00;66.70;;;;;;5089812;28;20470;-73
2022/06/02 02:54:50;;;;;;;0.00;0.00;;;9.90;66.80;;;;;;5089895;28;20049;-72
2022/06/02 02:57:58;;;;;;;0.00;0.00;;;9.90;66.80;;;;;;5089632;28;20035;-73
2022/06/02 03:00:31;;;;;;;0.00;0.00;;;10.00;66.70;;;;;;5108400;28;20015;-73
2022/06/02 03:03:06;;;;;;;0.00;0.00;;;10.00;66.60;;;;;;5107632;28;20432;-73
2022/06/02 03:06:01;;;;;;;0.00;0.00;;;9.90;66.60;;;;;;5089560;28;20119;-73
2022/06/02 03:08:46;;;;;;;0.00;0.00;;;9.90;66.60;;;;;;5107938;28;20044;-73
2022/06/02 03:11:34;;;;;;;0.00;0.00;;;9.90;66.60;;;;;;5108219;28;20085;-73
2022/06/02 03:14:39;;;;;;;0.00;0.00;;;9.80;66.70;;;;;;5090532;28;20030;-73
2022/06/02 03:17:13;;;;;;;0.00;0.00;;;9.80;66.70;;;;;;5111969;28;20033;-72
2022/06/02 03:20:08;;;;;;;0.00;0.00;;;9.90;66.80;;;;;;5093646;28;20068;-73
2022/06/02 03:22:42;;;;;;;0.00;0.00;;;9.90;66.70;;;;;;5093690;28;20064;-74
2022/06/02 03:25:29;;;;;;;0.00;0.00;;;9.90;66.50;;;;;;5111970;28;20069;-74
2022/06/02 03:28:00;;;;;;;0.00;0.00;;;9.80;66.50;;;;;;5112126;28;20024;-73
2022/06/02 03:30:34;;;;;;;0.00;0.00;;;9.70;66.60;;;;;;5112131;28;20194;-73
2022/06/02 03:33:22;;;;;;;0.00;0.00;;;9.70;66.70;;;;;;5111790;28;20081;-72
2022/06/02 03:36:19;;;;;;;0.00;0.00;;;9.70;66.80;;;;;;5111772;28;20370;-73
2022/06/02 03:39:03;;;;;;;0.00;0.00;;;9.70;66.80;;;;;;5111703;28;20062;-74
2022/06/02 03:42:04;;;;;;;0.00;0.00;;;9.70;66.80;;;;;;5111668;28;20023;-73
2022/06/02 03:44:45;;;;;;;0.00;0.00;;;9.80;66.70;;;;;;5111423;28;20020;-74
2022/06/02 03:47:22;;;;;;;0.00;0.00;;;9.70;66.60;;;;;;5111685;28;20023;-72
2022/06/02 03:50:06;;;;;;;0.00;0.00;;;9.70;66.60;;;;;;5111474;28;20024;-73
2022/06/02 03:52:58;;;;;;;0.25;0.10;;;9.80;66.70;;;;;;5111237;28;20026;-73
2022/06/02 03:55:55;;;;;;;0.00;0.00;;;9.80;66.70;;;;;;5111196;28;20031;-72
2022/06/02 03:58:39;;;;;;;0.00;0.00;;;9.80;66.70;;;;;;5111375;28;20034;-74
2022/06/02 04:01:08;;;;;;;0.00;0.00;;;9.80;66.70;;;;;;5111199;28;20047;-74
2022/06/02 04:03:46;;;;;;;0.00;0.00;;;9.80;66.70;;;;;;5110681;28;20047;-73
2022/06/02 04:06:30;;;;;;;0.00;0.00;;;9.80;66.70;;;;;;5111219;28;20024;-72
2022/06/02 04:09:08;;;;;;;0.00;0.00;;;9.90;66.80;;;;;;5093011;28;20111;-73
2022/06/02 04:15:11;;;;;;;0.00;0.00;;;9.90;66.80;;;;;;5084670;28;20562;-72
2022/06/02 04:18:03;;;;;;;0.00;0.00;;;9.80;66.80;;;;;;5092352;28;20473;-73
2022/06/02 04:20:46;;;;;;;0.00;0.00;;;9.90;66.90;;;;;;5110786;28;20091;-73
2022/06/02 04:23:33;;;;;;;0.00;0.00;;;9.90;66.90;;;;;;5110767;28;20011;-74
2022/06/02 04:26:35;;;;;;;0.00;0.00;;;9.90;66.90;;;;;;5110090;28;20637;-72
2022/06/02 04:29:14;;;;;;;0.00;0.00;;;9.90;66.80;;;;;;5110688;28;20016;-74
2022/06/02 04:32:08;;;;;;;0.00;0.00;;;10.00;67.00;;;;;;5110662;28;20059;-73
2022/06/02 04:34:54;;;;;;;0.00;0.00;;;10.00;66.80;;;;;;5110644;28;20027;-73
2022/06/02 04:37:41;;;;;;;0.00;0.00;;;10.10;66.90;;;;;;5091845;28;20119;-74
2022/06/02 04:40:20;;;;;;;0.00;0.00;;;10.00;66.80;;;;;;5110374;28;20020;-73
2022/06/02 04:42:53;;;;;;;0.00;0.00;;;10.00;66.90;;;;;;5092048;28;20035;-74
2022/06/02 04:45:55;;;;;;;0.00;0.00;;;10.10;66.90;;;;;;5110191;28;20069;-74
2022/06/02 04:48:26;;;;;;;0.00;0.00;;;10.10;66.90;;;;;;5110229;28;20497;-73
2022/06/02 04:51:08;;;;;;;0.00;0.00;;;10.10;66.90;;;;;;5091902;28;20028;-73
2022/06/02 04:53:44;;;;;;;0.00;0.00;;;10.20;66.90;;;;;;5110069;28;20031;-72
2022/06/02 04:56:25;;;;;;;0.00;0.00;;;10.20;66.80;;;;;;5109910;28;20029;-72
2022/06/02 04:59:17;;;;;;;0.00;0.00;;;10.30;66.90;;;;;;5110154;28;20106;-72
2022/06/02 05:02:04;;;;;;;0.00;0.00;;;10.40;66.80;;;;;;5053172;28;20561;-73
2022/06/02 05:05:14;;;;;;;0.00;0.00;;;10.40;66.80;;;;;;5109756;28;20042;-73
2022/06/02 05:07:54;;;;;;;0.00;0.00;;;10.50;66.90;;;;;;5083698;28;20036;-73
2022/06/02 05:10:43;;;;;;;0.00;0.00;;;10.50;66.90;;;;;;5109858;28;20042;-74
2022/06/02 05:13:40;;;;;;;0.00;0.00;;;10.60;67.00;;;;;;5091445;28;20064;-73
2022/06/02 05:16:08;;;;;;;0.00;0.00;;;10.70;67.00;;;;;;5109449;28;20454;-73
2022/06/02 05:18:40;;;;;;;0.00;0.00;;;10.80;67.00;;;;;;5109737;28;20020;-74
2022/06/02 05:21:17;;;;;;;0.00;0.00;;;10.90;67.00;;;;;;5091393;28;20085;-72
2022/06/02 05:23:49;;;;;;;0.00;0.00;;;11.00;67.00;;;;;;5091288;28;20397;-73
2022/06/02 05:26:31;;;;;;;0.00;0.00;;;11.10;66.90;;;;;;5109456;28;20466;-74
2022/06/02 05:29:22;;;;;;;0.00;0.00;;;11.20;67.00;;;;;;5109200;28;20053;-72
2022/06/02 05:32:09;;;;;;;0.00;0.00;;;11.30;66.90;;;;;;5091146;28;20026;-72
2022/06/02 05:34:43;;;;;;;0.00;0.00;;;11.40;66.90;;;;;;5109293;28;20026;-72
2022/06/02 05:37:27;;;;;;;0.00;0.00;;;11.50;66.80;;;;;;5108177;28;20489;-73
2022/06/02 05:40:11;;;;;;;0.00;0.00;;;11.60;66.80;;;;;;5109340;28;20084;-72
2022/06/02 05:42:59;;;;;;;0.00;0.00;;;11.80;67.00;;;;;;5109038;28;20019;-73
2022/06/02 05:45:43;;;;;;;;;;;12.30;67.40;;;;;;5091280;28;20379;-74
2022/06/02 05:48:29;;;;;;;0.00;0.00;;;13.10;66.20;;;;;;5109542;28;20389;-73
2022/06/02 05:51:15;;;;;;;0.00;0.00;;;13.30;65.30;;;;;;5039694;28;20117;-73
2022/06/02 05:54:04;;;;;;;0.00;0.00;;;13.30;65.40;;;;;;5090745;28;20120;-74
2022/06/02 05:56:46;;;;;;;0.00;0.00;;;13.20;66.60;;;;;;5108547;28;20535;-72
2022/06/02 05:59:23;;;;;;;0.00;0.00;;;14.00;67.40;;;;;;5108376;28;20023;-74
2022/06/02 06:01:56;;;;;;;0.00;0.00;;;15.80;66.40;;;;;;5108745;28;20027;-74
2022/06/02 06:04:49;;;;;;;0.00;0.00;;;17.70;64.80;;;;;;5108181;28;20040;-74
2022/06/02 06:07:34;;;;;;;0.00;0.00;;;19.50;63.30;;;;;;5108145;28;20035;-75
2022/06/02 06:10:14;;;;;;;0.00;0.00;;;20.90;62.50;;;;;;5108452;28;20550;-74
2022/06/02 06:13:07;;;;;;;0.00;0.00;;;21.80;62.00;;;;;;5108084;28;20039;-74
2022/06/02 06:16:18;;;;;;;0.00;0.00;;;22.70;61.70;;;;;;5108132;28;20099;-73
2022/06/02 06:18:44;;;;;;;0.00;0.00;;;23.50;61.50;;;;;;5103030;28;20036;-73
2022/06/02 06:21:12;;;;;;;;;;;24.10;61.20;;;;;;5108536;28;20034;-74
2022/06/02 06:23:53;;;;;;;0.00;0.00;;;24.40;61.20;;;;;;5108243;28;20555;-74
2022/06/02 06:26:28;;;;;;;0.00;0.00;;;24.90;61.30;;;;;;5108067;28;20222;-74
2022/06/02 06:29:12;;;;;;;0.00;0.00;;;25.40;61.30;;;;;;5089484;28;20030;-74
2022/06/02 06:31:46;;;;;;;0.00;0.00;;;25.80;61.20;;;;;;5107515;28;20377;-73
2022/06/02 06:34:19;;;;;;;0.00;0.00;;;26.20;61.30;;;;;;5106634;28;20072;-74
2022/06/02 06:37:16;;;;;;;0.00;0.00;;;26.70;61.30;;;;;;5107012;28;20027;-73
2022/06/02 06:39:44;;;;;;;0.00;0.00;;;27.10;61.50;;;;;;5107449;28;20024;-75
2022/06/02 06:42:45;;;;;;;0.00;0.00;;;27.40;61.60;;;;;;5107152;28;20016;-72
2022/06/02 06:45:31;;;;;;;0.00;0.00;;;27.70;61.70;;;;;;5107270;28;20016;-75
2022/06/02 06:48:22;;;;;;;0.00;0.00;;;27.90;61.80;;;;;;5106876;28;20027;-73
2022/06/02 06:50:58;;;;;;;0.00;0.00;;;27.80;62.20;;;;;;5107486;28;20030;-75
2022/06/02 06:53:44;;;;;;;0.00;0.00;;;27.70;62.90;;;;;;5107010;28;20568;-73
2022/06/02 06:56:10;;;;;;;0.00;0.00;;;28.00;62.70;;;;;;5106273;28;20016;-74
2022/06/02 06:59:00;;;;;;;0.00;0.00;;;28.40;62.10;;;;;;5106764;28;20027;-74
2022/06/02 07:02:06;;;;;;;0.00;0.00;;;28.80;61.50;;;;;;5088126;28;20031;-75
2022/06/02 07:05:01;;;;;;;0.00;0.00;;;29.00;61.80;;;;;;5067251;28;20047;-73
2022/06/02 07:08:03;;;;;;;0.00;0.00;;;29.30;61.80;;;;;;5105941;28;20146;-75
2022/06/02 07:10:35;;;;;;;0.00;0.00;;;29.60;61.80;;;;;;5105882;28;20500;-73
2022/06/02 07:13:15;;;;;;;0.00;0.00;;;30.00;61.60;;;;;;5106655;28;20469;-73
2022/06/02 07:16:24;;;;;;;0.00;0.00;;;30.30;61.70;;;;;;5107172;28;20031;-76
2022/06/02 07:19:07;;;;;;;0.00;0.00;;;30.60;61.80;;;;;;5105838;28;20047;-73
2022/06/02 07:21:54;;;;;;;0.00;0.00;;;30.70;61.70;;;;;;5107028;28;20047;-74
2022/06/02 07:24:28;;;;;;;0.00;0.00;;;30.90;61.80;;;;;;5106708;28;20123;-72
2022/06/02 07:27:11;;;;;;;0.00;0.00;;;31.00;62.40;;;;;;5106644;28;20069;-72
2022/06/02 07:29:43;;;;;;;0.00;0.00;;;31.10;62.70;;;;;;5105860;28;20020;-73
2022/06/02 07:32:30;;;;;;;0.00;0.00;;;31.20;62.40;;;;;;5105789;28;20051;-74
2022/06/02 07:35:05;;;;;;;0.00;0.00;;;31.40;62.70;;;;;;5106144;28;20382;-74
2022/06/02 07:37:43;;;;;;;0.00;0.00;;;31.40;63.00;;;;;;5106391;28;20126;-73
2022/06/02 07:40:18;;;;;;;0.00;0.00;;;31.30;63.80;;;;;;5106724;28;20019;-73
2022/06/02 07:43:01;;;;;;;0.00;0.00;;;31.40;64.50;;;;;;5106444;28;20031;-73
2022/06/02 07:45:50;;;;;;;0.00;0.00;;;31.70;64.20;;;;;;5106335;28;20116;-73
2022/06/02 07:48:42;;;;;;;0.00;0.00;;;31.70;63.10;;;;;;5092566;28;20044;-74
2022/06/02 07:51:19;;;;;;;0.00;0.00;;;31.00;63.20;;;;;;5106339;28;20051;-74
2022/06/02 07:54:16;;;;;;;0.00;0.00;;;30.70;63.50;;;;;;5106202;28;20050;-73
2022/06/02 07:57:19;;;;;;;0.00;0.00;;;30.30;64.20;;;;;;5087299;28;20028;-74
2022/06/02 08:00:07;;;;;;;0.00;0.00;;;30.80;64.50;;;;;;5106530;28;20024;-74
2022/06/02 08:03:08;;;;;;;0.00;0.00;;;31.90;64.80;;;;;;5091045;28;20049;-75
2022/06/02 08:05:45;;;;;;;0.00;0.00;;;32.50;63.80;;;;;;5109605;28;20374;-75
2022/06/02 08:08:29;;;;;;;0.00;0.00;;;33.20;63.30;;;;;;5091038;28;20030;-73
2022/06/02 08:11:33;;;;;;;0.00;0.00;;;33.70;62.60;;;;;;5110412;28;20087;-73
2022/06/02 08:14:17;;;;;;;0.00;0.00;;;33.60;62.20;;;;;;5110014;28;20044;-74
2022/06/02 08:16:56;;;;;;;0.00;0.00;;;32.40;62.10;;;;;;5109536;28;20028;-74
2022/06/02 08:19:45;;;;;;;0.00;0.00;;;31.10;62.20;;;;;;5107766;28;20008;-73
2022/06/02 08:22:17;;;;;;;0.00;0.00;;;30.10;63.20;;;;;;5109722;28;20036;-73
2022/06/02 08:24:58;;;;;;;0.00;0.00;;;29.90;64.70;;;;;;5097067;28;20028;-72
2022/06/02 08:27:36;;;;;;;0.00;0.00;;;29.90;64.80;;;;;;5090407;28;20103;-73
2022/06/02 08:30:24;;;;;;;0.00;0.00;;;29.50;64.20;;;;;;5089924;28;20035;-73
2022/06/02 08:33:07;;;;;;;0.00;0.00;;;28.80;64.70;;;;;;5089396;28;20024;-72
2022/06/02 08:36:07;;;;;;;0.00;0.00;;;28.30;64.90;;;;;;5089690;28;20672;-74
2022/06/02 08:39:05;;;;;;;0.00;0.00;;;27.80;64.80;;;;;;5089349;28;20028;-74
2022/06/02 08:41:53;;;;;;;0.00;0.00;;;27.40;64.50;;;;;;5089725;28;20519;-72
2022/06/02 08:44:46;;;;;;;0.00;0.00;;;27.10;64.50;;;;;;5089368;28;20020;-72
2022/06/02 08:47:50;;;;;;;0.00;0.00;;;26.90;64.60;;;;;;5096274;28;20497;-75
2022/06/02 08:50:34;;;;;;;0.00;0.00;;;26.80;64.40;;;;;;5085813;28;20095;-75
2022/06/02 08:53:08;;;;;;;0.00;0.00;;;26.70;64.90;;;;;;5108453;28;20041;-74
2022/06/02 08:56:13;;;;;;;0.00;0.00;;;26.90;65.30;;;;;;5109251;28;20073;-73
2022/06/02 08:58:54;;;;;;;0.00;0.00;;;27.30;65.00;;;;;;5107131;28;20019;-74
2022/06/02 09:01:28;;;;;;;0.00;0.00;;;27.60;64.70;;;;;;5108659;28;20050;-76
2022/06/02 09:04:21;;;;;;;0.00;0.00;;;27.80;64.80;;;;;;5108896;28;20370;-75
2022/06/02 09:06:56;;;;;;;0.00;0.00;;;27.90;64.90;;;;;;5108107;28;20059;-74
2022/06/02 09:09:49;;;;;;;0.00;0.00;;;27.90;64.50;;;;;;5107731;28;20025;-73
2022/06/02 09:12:50;;;;;;;0.00;0.00;;;27.90;64.60;;;;;;5108428;28;20674;-73
2022/06/02 09:15:34;;;;;;;0.00;0.00;;;27.90;64.20;;;;;;5108551;28;20358;-73
2022/06/02 09:18:02;;;;;;;0.00;0.00;;;27.50;63.60;;;;;;5106298;28;20031;-72
2022/06/02 09:20:34;;;;;;;0.00;0.00;;;26.90;63.40;;;;;;5106444;28;20027;-73
2022/06/02 09:23:02;;;;;;;0.00;0.00;;;26.30;63.60;;;;;;5105882;28;20085;-72
2022/06/02 09:25:59;;;;;;;0.00;0.00;;;25.70;64.00;;;;;;5091061;28;20020;-72
2022/06/02 09:28:46;;;;;;;0.00;0.00;;;25.30;64.30;;;;;;5106573;28;20019;-72
2022/06/02 09:31:36;;;;;;;0.00;0.00;;;25.00;64.50;;;;;;5107004;28;20345;-72
2022/06/02 09:34:20;;;;;;;0.00;0.00;;;24.80;64.60;;;;;;5099940;28;20028;-72
2022/06/02 09:37:52;;;;;;;0.00;0.00;;;24.50;64.70;;;;;;5101801;28;20031;-72
2022/06/02 09:40:27;;;;;;;0.00;0.00;;;24.20;64.90;;;;;;5001700;28;20153;-72
2022/06/02 09:43:01;;;;;;;0.00;0.00;;;24.10;64.80;;;;;;5096687;28;20035;-73
2022/06/02 09:46:05;;;;;;;0.00;0.00;;;24.00;64.90;;;;;;5107296;28;20012;-74
2022/06/02 09:49:01;;;;;;;0.00;0.00;;;24.00;64.80;;;;;;5107277;28;20035;-73
2022/06/02 09:52:05;;;;;;;0.00;0.00;;;24.00;64.70;;;;;;5107711;28;20030;-74
2022/06/02 09:54:57;;;;;;;0.00;0.00;;;24.10;64.70;;;;;;5103938;28;20103;-72
2022/06/02 09:58:05;;;;;;;0.00;0.00;;;24.20;64.70;;;;;;5108458;28;20016;-73
2022/06/02 10:00:40;;;;;;;0.00;0.00;;;24.40;64.60;;;;;;5107210;28;20019;-74
2022/06/02 10:03:36;;;;;;;0.00;0.00;;;24.40;64.70;;;;;;5105775;28;20074;-73
2022/06/02 10:06:23;;;;;;;0.00;0.00;;;24.40;64.90;;;;;;5108730;28;20023;-73
2022/06/02 10:09:21;;;;;;;0.00;0.00;;;24.50;65.10;;;;;;5108755;28;20039;-74
2022/06/02 10:15:01;;;;;;;0.00;0.00;;;25.30;65.10;;;;;;5108910;28;20134;-73
2022/06/02 10:17:37;;;;;;;0.00;0.00;;;25.70;64.70;;;;;;5108149;28;20154;-73
2022/06/02 10:20:24;;;;;;;0.00;0.00;;;25.80;64.20;;;;;;5108446;28;20024;-75
2022/06/02 10:23:38;;;;;;;0.00;0.00;;;25.70;63.90;;;;;;5108191;28;20035;-72
2022/06/02 10:26:45;;;;;;;0.00;0.00;;;25.70;63.90;;;;;;5014415;28;20050;-73
2022/06/02 10:29:32;;;;;;;0.00;0.00;;;25.60;64.00;;;;;;5108893;28;20090;-75
2022/06/02 10:32:17;;;;;;;0.00;0.00;;;25.60;64.00;;;;;;5109060;28;20051;-73
2022/06/02 10:35:14;;;;;;;0.00;0.00;;;25.70;64.10;;;;;;5108489;28;20471;-74
2022/06/02 10:37:58;;;;;;;0.00;0.00;;;25.70;63.70;;;;;;5108326;28;20069;-71
2022/06/02 10:40:50;;;;;;;0.00;0.00;;;25.70;63.70;;;;;;5089516;28;20114;-74
2022/06/02 10:43:21;;;;;;;0.00;0.00;;;25.70;63.80;;;;;;5108059;28;20092;-73
2022/06/02 10:45:58;;;;;;;0.00;0.00;;;25.70;63.80;;;;;;5108189;28;20074;-74
2022/06/02 10:49:09;;;;;;;0.00;0.00;;;25.50;63.50;;;;;;5108106;28;20074;-74
2022/06/02 10:52:04;;;;;;;0.00;0.00;;;25.40;63.50;;;;;;5089601;28;20397;-72
2022/06/02 10:54:51;;;;;;;0.00;0.00;;;25.20;63.40;;;;;;5107844;28;20064;-74
2022/06/02 10:57:25;;;;;;;;;;;25.00;63.30;;;;;;5108393;28;20032;-74
2022/06/02 11:00:15;;;;;;;0.00;0.00;;;24.80;63.50;;;;;;5107976;28;19908;-76
2022/06/02 11:03:11;;;;;;;0.00;0.00;;;24.70;63.70;;;;;;5107344;28;20409;-75
2022/06/02 11:06:21;;;;;;;0.00;0.00;;;24.50;63.70;;;;;;5089801;28;20053;-75
2022/06/02 11:09:22;;;;;;;0.00;0.00;;;24.40;63.70;;;;;;5016507;28;20029;-75
2022/06/02 11:12:06;;;;;;;0.00;0.00;;;24.10;63.60;;;;;;5073619;28;20039;-74
2022/06/02 11:14:41;;;;;;;0.00;0.00;;;23.90;63.70;;;;;;5106873;28;20084;-74
2022/06/02 11:17:18;;;;;;;0.00;0.00;;;23.80;63.70;;;;;;5107666;28;20117;-74
2022/06/02 11:20:03;;;;;;;0.00;0.00;;;23.60;63.70;;;;;;5107492;28;20034;-75
2022/06/02 11:22:47;;;;;;;0.00;0.00;;;23.40;63.90;;;;;;5107212;28;20051;-74
2022/06/02 11:25:31;;;;;;;0.00;0.00;;;23.30;64.00;;;;;;5107141;28;20406;-74
2022/06/02 11:28:30;;;;;;;0.00;0.00;;;23.20;64.10;;;;;;5107099;28;20055;-74
2022/06/02 11:31:08;;;;;;;0.00;0.00;;;23.10;64.10;;;;;;5088322;28;20088;-74
2022/06/02 11:33:43;;;;;;;0.00;0.00;;;22.90;64.10;;;;;;5105883;28;20125;-74
2022/06/02 11:36:35;;;;;;;0.00;0.00;;;22.80;64.20;;;;;;5108732;28;20020;-74
2022/06/02 11:39:16;;;;;;;0.00;0.00;;;22.70;64.10;;;;;;5091733;28;20015;-73
2022/06/02 11:41:47;;;;;;;0.00;0.00;;;22.60;64.00;;;;;;5110190;28;20339;-74
2022/06/02 11:44:37;;;;;;;0.00;0.00;;;22.40;63.80;;;;;;5092590;28;20023;-73
2022/06/02 11:47:14;;;;;;;0.00;0.00;;;22.30;64.00;;;;;;5096764;28;20023;-75
2022/06/02 11:50:20;;;;;;;0.00;0.00;;;22.20;64.10;;;;;;5111645;28;20483;-74
2022/06/02 11:53:21;;;;;;;0.00;0.00;;;22.20;64.10;;;;;;5111488;28;20504;-75
2022/06/02 11:56:01;;;;;;;0.00;0.00;;;22.40;64.20;;;;;;5025244;28;20454;-75
2022/06/02 11:58:39;;;;;;;0.00;0.00;;;22.40;64.10;;;;;;5093014;28;20031;-75
2022/06/02 12:01:42;;;;;;;0.00;0.00;;;22.40;64.00;;;;;;5111888;28;20024;-76
2022/06/02 12:04:10;;;;;;;0.00;0.00;;;22.40;64.10;;;;;;5110613;28;20047;-73
2022/06/02 12:07:01;;;;;;;0.00;0.00;;;22.50;64.20;;;;;;5111471;28;20126;-73
2022/06/02 12:09:58;;;;;;;0.00;0.00;;;22.70;64.20;;;;;;5112179;28;20015;-74
2022/06/02 12:12:51;;;;;;;0.00;0.00;;;22.80;64.00;;;;;;5092549;28;20392;-74
2022/06/02 12:15:33;;;;;;;0.00;0.00;;;22.80;64.10;;;;;;5092658;28;20446;-75
2022/06/02 12:18:10;;;;;;;0.00;0.00;;;23.00;64.40;;;;;;5093087;28;20023;-76
2022/06/02 12:21:02;;;;;;;0.00;0.00;;;23.50;64.60;;;;;;5110731;28;20047;-76
2022/06/02 12:23:57;;;;;;;0.00;0.00;;;23.90;64.20;;;;;;5064455;28;20741;-75
2022/06/02 12:26:47;;;;;;;0.00;0.00;;;24.10;64.00;;;;;;5090955;28;20024;-74
2022/06/02 12:29:37;;;;;;;0.00;0.00;;;24.10;64.00;;;;;;5089319;28;20016;-76
2022/06/02 12:32:47;;;;;;;0.00;0.00;;;24.10;64.00;;;;;;5110091;28;20032;-74
2022/06/02 12:35:52;;;;;;;0.00;0.00;;;24.20;64.10;;;;;;5110933;28;20094;-74
2022/06/02 12:38:35;;;;;;;0.00;0.00;;;24.00;63.70;;;;;;5042886;28;20368;-73
2022/06/02 12:41:23;;;;;;;0.00;0.00;;;23.90;63.80;;;;;;5110772;28;20031;-75
2022/06/02 12:44:14;;;;;;;0.00;0.00;;;23.60;64.50;;;;;;5110881;28;20020;-74
2022/06/02 12:46:55;;;;;;;0.00;0.00;;;23.30;64.20;;;;;;5110522;28;20016;-74
2022/06/02 12:49:27;;;;;;;0.00;0.00;;;23.20;64.40;;;;;;5092056;28;20015;-75
2022/06/02 12:52:13;;;;;;;0.00;0.00;;;23.10;64.60;;;;;;5110739;28;20099;-73
2022/06/02 12:55:04;;;;;;;0.00;0.00;;;23.10;64.70;;;;;;5110441;28;20099;-74
2022/06/02 12:57:59;;;;;;;0.00;0.00;;;23.20;64.70;;;;;;5092225;28;20454;-75
2022/06/02 13:00:58;;;;;;;0.00;0.00;;;23.30;64.60;;;;;;5019557;28;20034;-73
2022/06/02 13:03:42;;;;;;;0.00;0.00;;;23.30;64.20;;;;;;5109489;28;20051;-73
2022/06/02 13:06:08;;;;;;;0.00;0.00;;;23.30;64.20;;;;;;5109840;28;20028;-75
2022/06/02 13:09:00;;;;;;;;;;;23.30;64.00;;;;;;5092344;28;20120;-73
2022/06/02 13:11:35;;;;;;;0.00;0.00;;;23.40;64.10;;;;;;5110201;28;19904;-74
2022/06/02 13:14:02;;;;;;;0.00;0.00;;;23.30;63.90;;;;;;5110289;28;20116;-72
2022/06/02 13:16:56;;;;;;;0.00;0.00;;;23.30;64.20;;;;;;5110009;28;20027;-76
2022/06/02 13:19:31;;;;;;;0.00;0.00;;;23.30;64.30;;;;;;5110198;28;20407;-78
2022/06/02 13:22:21;;;;;;;0.00;0.00;;;23.30;64.20;;;;;;5109538;28;20032;-74
2022/06/02 13:25:11;;;;;;;0.00;0.00;;;23.30;64.20;;;;;;5109474;28;20031;-73
2022/06/02 13:27:43;;;;;;;0.00;0.00;;;23.40;64.10;;;;;;5109926;28;20100;-73
2022/06/02 13:30:30;;;;;;;0.00;0.00;;;23.40;64.10;;;;;;5109837;28;20099;-72
2022/06/02 13:33:29;;;;;;;0.00;0.00;;;23.30;63.90;;;;;;5109145;28;20027;-73
2022/06/02 13:36:18;;;;;;;0.00;0.00;;;23.30;64.00;;;;;;5109627;28;20028;-73
2022/06/02 13:39:12;;;;;;;0.00;0.00;;;23.60;64.20;;;;;;5109895;28;20036;-75
2022/06/02 13:41:47;;;;;;;0.00;0.00;;;23.80;64.20;;;;;;5109713;28;20016;-75
2022/06/02 13:44:45;;;;;;;0.00;0.00;;;24.10;64.40;;;;;;5109017;28;20043;-73
2022/06/02 13:47:28;;;;;;;0.00;0.00;;;24.40;64.40;;;;;;5088497;28;20028;-74
2022/06/02 13:50:13;;;;;;;0.00;0.00;;;24.80;64.10;;;;;;5109739;28;20039;-75
2022/06/02 13:52:56;;;;;;;0.00;0.00;;;25.00;64.30;;;;;;5109199;28;20031;-74
2022/06/02 13:58:59;;;;;;;0.00;0.00;;;25.30;63.80;;;;;;5106828;28;20104;-74
2022/06/02 14:01:35;;;;;;;0.00;0.00;;;25.20;63.50;;;;;;5108528;28;20349;-74
2022/06/02 14:04:30;;;;;;;0.00;0.00;;;25.20;63.50;;;;;;5108287;28;20062;-73
2022/06/02 14:07:04;;;;;;;0.00;0.00;;;25.10;63.50;;;;;;5094704;28;20039;-73
2022/06/02 14:09:51;;;;;;;0.00;0.00;;;25.10;63.60;;;;;;5107859;28;20369;-74
2022/06/02 14:12:30;;;;;;;0.00;0.00;;;25.10;63.70;;;;;;5108419;28;20142;-73
2022/06/02 14:14:56;;;;;;;0.00;0.00;;;25.00;63.60;;;;;;5108029;28;20059;-73
2022/06/02 14:17:59;;;;;;;0.00;0.00;;;24.80;63.50;;;;;;5108024;28;20050;-74
2022/06/02 14:20:43;;;;;;;0.00;0.00;;;24.40;63.70;;;;;;5089116;28;20047;-74
2022/06/02 14:23:11;;;;;;;0.00;0.00;;;24.00;64.00;;;;;;5108412;28;20020;-74
2022/06/02 14:25:48;;;;;;;0.00;0.00;;;23.80;64.20;;;;;;5108518;28;20476;-75
2022/06/02 14:28:40;;;;;;;;;;;23.60;64.10;;;;;;5090392;28;20027;-73
2022/06/02 14:31:16;;;;;;;0.00;0.00;;;23.40;64.00;;;;;;5103910;28;19915;-74
2022/06/02 14:33:48;;;;;;;0.00;0.00;;;23.20;63.80;;;;;;5108158;28;20110;-74
2022/06/02 14:36:22;;;;;;;0.00;0.00;;;23.00;63.90;;;;;;5108022;28;20103;-72
2022/06/02 14:38:57;;;;;;;0.00;0.00;;;22.70;63.70;;;;;;5108034;28;20020;-72